createdAt,value
2022-09-23T00:00:14.458Z,2.60
2022-09-23T00:04:00.305Z,2.63
2022-09-23T00:07:42.706Z,2.65
2022-09-23T00:11:27.587Z,2.30
2022-09-23T00:15:11.605Z,2.10
2022-09-23T00:18:54.035Z,2.10
2022-09-23T00:22:38.529Z,2.35
2022-09-23T00:26:23.137Z,2.20
2022-09-23T00:30:09.254Z,1.80
2022-09-23T00:33:56.646Z,2.33
2022-09-23T00:37:40.756Z,2.17
2022-09-23T00:41:23.770Z,2.30
2022-09-23T00:45:11.067Z,2.63
2022-09-23T00:48:59.279Z,1.90
2022-09-23T00:52:44.348Z,2.13
2022-09-23T00:56:27.061Z,2.25
2022-09-23T01:00:11.245Z,2.47
2022-09-23T01:03:55.419Z,2.17
2022-09-23T01:07:37.803Z,1.80
2022-09-23T01:11:34.667Z,2.23
2022-09-23T01:15:21.775Z,1.77
2022-09-23T01:19:12.504Z,1.85
2022-09-23T01:23:08.287Z,2.00
2022-09-23T01:27:08.265Z,2.42
2022-09-23T01:30:56.731Z,2.08
2022-09-23T01:34:48.149Z,2.88
2022-09-23T01:38:38.707Z,1.92
2022-09-23T01:42:30.497Z,1.77
2022-09-23T01:46:20.661Z,2.10
2022-09-23T01:50:28.633Z,2.30
2022-09-23T01:54:15.831Z,1.80
2022-09-23T01:58:06.162Z,2.17
2022-09-23T02:01:55.073Z,2.35
2022-09-23T02:05:40.597Z,2.10
2022-09-23T02:09:26.763Z,1.75
2022-09-23T02:13:15.649Z,2.38
2022-09-23T02:17:04.732Z,2.00
2022-09-23T02:20:48.106Z,1.90
2022-09-23T02:24:32.723Z,2.30
2022-09-23T02:28:19.399Z,2.10
2022-09-23T02:32:12.586Z,2.00
2022-09-23T02:35:57.333Z,2.22
2022-09-23T02:39:50.969Z,1.90
2022-09-23T02:47:25.891Z,1.75
2022-09-23T02:51:08.595Z,2.00
2022-09-23T02:54:51.628Z,1.98
2022-09-23T02:58:34.361Z,1.67
2022-09-23T03:02:41.848Z,2.08
2022-09-23T03:06:31.461Z,1.98
2022-09-23T03:10:22.481Z,1.98
2022-09-23T03:14:17.695Z,1.85
2022-09-23T03:18:11.702Z,2.00
2022-09-23T03:22:04.523Z,1.92
2022-09-23T03:25:50.677Z,2.08
2022-09-23T03:29:39.713Z,1.77
2022-09-23T03:33:28.830Z,2.28
2022-09-23T03:37:17.976Z,2.17
2022-09-23T03:41:02.910Z,2.47
2022-09-23T03:44:46.976Z,2.20
2022-09-23T03:48:30.890Z,1.90
2022-09-23T03:52:13.530Z,2.05
2022-09-23T03:55:56.362Z,2.80
2022-09-23T03:59:39.425Z,2.42
2022-09-23T04:03:22.769Z,3.20
2022-09-23T04:10:54.612Z,2.33
2022-09-23T04:14:37.486Z,2.47
2022-09-23T04:18:21.027Z,2.83
2022-09-23T04:22:03.478Z,2.67
2022-09-23T04:25:48.445Z,2.22
2022-09-23T04:29:31.136Z,1.80
2022-09-23T04:33:14.617Z,1.97
2022-09-23T04:36:57.254Z,1.90
2022-09-23T04:40:42.076Z,2.43
2022-09-23T04:44:28.302Z,2.00
2022-09-23T04:48:13.887Z,2.00
2022-09-23T04:51:57.967Z,1.98
2022-09-23T04:55:42.056Z,1.55
2022-09-23T04:59:26.150Z,2.03
2022-09-23T05:03:08.828Z,1.90
2022-09-23T05:06:51.556Z,1.83
2022-09-23T05:10:34.378Z,2.13
2022-09-23T05:14:16.896Z,2.00
2022-09-23T05:18:02.458Z,2.00
2022-09-23T05:21:45.167Z,2.72
2022-09-23T05:25:30.199Z,2.10
2022-09-23T05:29:13.181Z,1.83
2022-09-23T05:32:55.871Z,1.63
2022-09-23T05:36:39.760Z,1.90
2022-09-23T05:40:22.596Z,1.70
2022-09-23T05:44:06.001Z,1.60
2022-09-23T05:47:48.270Z,1.88
2022-09-23T05:51:31.994Z,1.70
2022-09-23T05:59:01.557Z,1.70
2022-09-23T06:02:44.295Z,1.58
2022-09-23T06:06:30.187Z,1.70
2022-09-23T06:10:17.014Z,2.30
2022-09-23T06:14:02.089Z,1.92
2022-09-23T06:17:44.982Z,2.10
2022-09-23T06:21:30.852Z,1.87
2022-09-23T06:25:13.412Z,1.90
2022-09-23T06:28:57.995Z,1.40
2022-09-23T06:32:40.644Z,1.80
2022-09-23T06:36:40.674Z,1.70
2022-09-23T06:40:25.249Z,1.60
2022-09-23T06:44:09.501Z,1.73
2022-09-23T06:47:57.909Z,1.75
2022-09-23T06:51:41.078Z,1.55
2022-09-23T06:55:27.889Z,1.60
2022-09-23T06:59:15.709Z,1.70
2022-09-23T07:02:58.398Z,2.00
2022-09-23T07:06:42.952Z,2.33
2022-09-23T07:10:29.024Z,4.32
2022-09-23T07:14:13.586Z,3.13
2022-09-23T07:17:58.109Z,3.38
2022-09-23T07:21:42.709Z,2.30
2022-09-23T07:25:25.286Z,2.60
2022-09-23T07:29:08.013Z,2.35
2022-09-23T07:32:52.165Z,2.70
2022-09-23T07:36:37.134Z,2.60
2022-09-23T07:40:19.772Z,9.75
2022-09-23T07:44:02.999Z,4.78
2022-09-23T07:47:45.978Z,2.10
2022-09-23T07:51:36.041Z,2.40
2022-09-23T07:55:21.126Z,1.92
2022-09-23T07:59:04.544Z,2.22
2022-09-23T08:02:50.755Z,2.72
2022-09-23T08:06:36.923Z,2.40
2022-09-23T08:10:20.988Z,2.00
2022-09-23T08:14:04.341Z,2.58
2022-09-23T08:17:47.173Z,2.05
2022-09-23T08:21:32.671Z,2.30
2022-09-23T08:25:22.172Z,1.83
2022-09-23T08:29:09.736Z,1.85
2022-09-23T08:32:52.669Z,2.00
2022-09-23T08:36:36.140Z,1.80
2022-09-23T08:40:20.545Z,1.83
2022-09-23T08:44:05.541Z,1.60
2022-09-23T08:47:56.245Z,2.00
2022-09-23T08:51:46.064Z,1.90
2022-09-23T08:55:35.508Z,1.95
2022-09-23T08:59:25.157Z,2.00
2022-09-23T09:03:20.453Z,1.90
2022-09-23T09:07:35.161Z,1.70
2022-09-23T09:11:20.246Z,1.90
2022-09-23T09:15:07.014Z,1.95
2022-09-23T09:18:54.798Z,1.88
2022-09-23T09:22:53.722Z,1.83
2022-09-23T09:26:39.662Z,1.95
2022-09-23T09:30:22.866Z,1.75
2022-09-23T09:34:12.048Z,1.73
2022-09-23T09:37:56.231Z,1.70
2022-09-23T09:41:44.013Z,2.10
2022-09-23T09:45:38.657Z,1.85
2022-09-23T09:49:31.514Z,1.88
2022-09-23T09:53:26.286Z,1.90
2022-09-23T09:57:19.330Z,1.80
2022-09-23T10:01:01.888Z,2.40
2022-09-23T10:04:44.676Z,2.42
2022-09-23T10:08:32.056Z,2.28
2022-09-23T10:12:18.581Z,2.20
2022-09-23T10:16:03.924Z,2.25
2022-09-23T10:19:49.313Z,2.65
2022-09-23T10:23:33.343Z,1.80
2022-09-23T10:27:26.708Z,2.47
2022-09-23T10:31:12.564Z,2.38
2022-09-23T10:34:58.319Z,2.30
2022-09-23T10:38:44.853Z,2.28
2022-09-23T10:43:00.530Z,1.80
2022-09-23T10:46:51.151Z,2.55
2022-09-23T10:50:42.655Z,2.30
2022-09-23T10:54:34.293Z,2.30
2022-09-23T10:58:41.105Z,2.70
2022-09-23T11:02:41.896Z,2.90
2022-09-23T11:06:31.869Z,2.63
2022-09-23T11:10:46.224Z,3.10
2022-09-23T11:14:45.048Z,2.55
2022-09-23T11:18:49.812Z,2.80
2022-09-23T11:22:57.014Z,2.70
2022-09-23T11:26:47.009Z,2.70
2022-09-23T11:30:39.567Z,2.83
2022-09-23T11:34:45.495Z,2.70
2022-09-23T11:38:32.685Z,2.60
2022-09-23T11:42:22.254Z,2.65
2022-09-23T11:46:14.227Z,2.83
2022-09-23T11:50:01.236Z,2.53
2022-09-23T11:53:48.887Z,2.83
2022-09-23T11:57:47.740Z,2.40
2022-09-23T12:01:39.615Z,2.15
2022-09-23T12:05:32.852Z,2.33
2022-09-23T12:09:40.920Z,2.30
2022-09-23T12:13:36.753Z,2.13
2022-09-23T12:17:42.080Z,2.83
2022-09-23T12:21:51.318Z,2.38
2022-09-23T12:25:43.261Z,2.60
2022-09-23T12:29:30.001Z,2.67
2022-09-23T12:33:24.636Z,2.50
2022-09-23T12:37:07.830Z,2.33
2022-09-23T12:40:52.293Z,2.97
2022-09-23T12:44:41.647Z,3.05
2022-09-23T12:48:45.738Z,3.05
2022-09-23T12:52:34.825Z,2.53
2022-09-23T12:56:22.625Z,2.60
2022-09-23T13:00:23.135Z,2.47
2022-09-23T13:04:24.844Z,2.50
2022-09-23T13:08:10.516Z,2.50
2022-09-23T13:11:59.786Z,2.47
2022-09-23T13:15:43.659Z,2.65
2022-09-23T13:19:47.264Z,2.53
2022-09-23T13:23:33.846Z,2.50
2022-09-23T13:27:21.260Z,2.60
2022-09-23T13:31:07.755Z,3.10
2022-09-23T13:34:59.124Z,2.42
2022-09-23T14:03:36.112Z,2.72
2022-09-23T14:07:20.879Z,2.13
2022-09-23T14:11:06.205Z,1.85
2022-09-23T14:14:51.716Z,2.50
2022-09-23T14:18:38.757Z,2.08
2022-09-23T14:22:26.981Z,2.75
2022-09-23T14:26:09.845Z,2.20
2022-09-23T14:29:52.810Z,2.47
2022-09-23T14:33:42.309Z,2.30
2022-09-23T14:37:48.159Z,2.58
2022-09-23T14:41:38.233Z,2.55
2022-09-23T14:45:26.181Z,2.15
2022-09-23T14:49:17.559Z,2.78
2022-09-23T14:53:02.097Z,2.20
2022-09-23T14:56:45.399Z,3.13
2022-09-23T15:00:27.871Z,2.35
2022-09-23T15:04:15.017Z,3.20
2022-09-23T15:08:01.213Z,4.05
2022-09-23T15:11:44.229Z,5.20
2022-09-23T15:15:32.051Z,3.25
2022-09-23T15:19:23.521Z,4.03
2022-09-23T15:23:06.507Z,2.63
2022-09-23T15:26:52.433Z,2.20
2022-09-23T15:30:36.759Z,2.33
2022-09-23T15:34:21.072Z,2.42
2022-09-23T15:38:04.023Z,2.80
2022-09-23T15:41:46.647Z,2.42
2022-09-23T15:45:34.241Z,2.10
2022-09-23T15:49:27.144Z,2.33
2022-09-23T15:53:15.376Z,2.20
2022-09-23T15:56:58.062Z,2.63
2022-09-23T16:00:41.173Z,1.90
2022-09-23T16:04:26.056Z,2.25
2022-09-23T16:08:10.790Z,2.45
2022-09-23T16:11:53.375Z,2.22
2022-09-23T16:15:36.155Z,2.17
2022-09-23T16:19:18.707Z,2.17
2022-09-23T16:23:06.821Z,2.58
2022-09-23T16:26:49.825Z,3.00
2022-09-23T16:30:34.951Z,2.70
2022-09-23T16:34:18.522Z,2.50
2022-09-23T16:38:02.651Z,2.13
2022-09-23T16:41:45.081Z,2.88
2022-09-23T16:45:27.853Z,2.67
2022-09-23T16:49:12.322Z,28.08
2022-09-23T16:52:56.296Z,14.68
2022-09-23T16:56:45.499Z,4.32
2022-09-23T17:00:45.436Z,3.00
2022-09-23T17:04:28.606Z,2.72
2022-09-23T17:08:13.303Z,2.50
2022-09-23T17:12:05.493Z,2.90
2022-09-23T17:15:48.116Z,2.58
2022-09-23T17:19:34.219Z,3.00
2022-09-23T17:23:18.859Z,2.90
2022-09-23T17:27:02.965Z,3.17
2022-09-23T17:30:45.508Z,3.30
2022-09-23T17:34:33.411Z,4.57
2022-09-23T17:38:16.045Z,4.47
2022-09-23T17:41:58.754Z,6.32
2022-09-23T17:45:43.022Z,7.30
2022-09-23T17:49:25.840Z,8.48
2022-09-23T17:53:08.314Z,11.15
2022-09-23T17:56:51.415Z,25.20
2022-09-23T18:00:33.999Z,22.13
2022-09-23T18:04:18.134Z,12.52
2022-09-23T18:08:05.273Z,9.73
2022-09-23T18:11:49.647Z,14.95
2022-09-23T18:15:32.541Z,29.10
2022-09-23T18:19:18.635Z,16.23
2022-09-23T18:23:04.163Z,11.13
2022-09-23T18:26:47.361Z,8.48
2022-09-23T18:30:33.001Z,8.60
2022-09-23T18:34:18.177Z,8.70
2022-09-23T18:38:01.087Z,10.57
2022-09-23T18:41:44.120Z,12.43
2022-09-23T18:45:27.076Z,10.70
2022-09-23T18:49:27.313Z,10.43
2022-09-23T18:53:12.065Z,12.10
2022-09-23T18:56:55.789Z,12.07
2022-09-23T19:04:22.882Z,9.15
2022-09-23T19:08:05.744Z,6.90
2022-09-23T19:11:52.225Z,4.97
2022-09-23T19:15:35.052Z,3.30
2022-09-23T19:19:18.280Z,2.92
2022-09-23T19:23:00.750Z,2.38
2022-09-23T19:26:44.284Z,2.90
2022-09-23T19:30:28.073Z,3.63
2022-09-23T19:34:17.912Z,3.40
2022-09-23T19:38:01.922Z,3.30
2022-09-23T19:41:45.043Z,3.67
2022-09-23T19:45:34.681Z,3.40
2022-09-23T19:49:18.493Z,3.70
2022-09-23T19:53:01.515Z,3.88
2022-09-23T19:56:44.926Z,3.95
2022-09-23T20:04:15.563Z,4.13
2022-09-23T20:08:01.957Z,4.47
2022-09-23T20:11:44.750Z,3.92
2022-09-23T20:15:29.001Z,3.90
2022-09-23T20:19:12.952Z,3.30
2022-09-23T20:22:55.781Z,4.60
2022-09-23T20:26:56.167Z,4.87
2022-09-23T20:30:42.909Z,5.95
2022-09-23T20:34:26.122Z,4.30
2022-09-23T20:38:09.601Z,4.68
2022-09-23T20:41:53.252Z,4.22
2022-09-23T20:49:19.679Z,5.22
2022-09-23T20:53:02.411Z,4.68
2022-09-23T20:56:45.123Z,4.60
2022-09-23T21:00:28.022Z,4.45
2022-09-23T21:04:10.893Z,4.90
2022-09-23T21:07:56.192Z,4.32
2022-09-23T21:11:41.096Z,4.65
2022-09-23T21:15:23.942Z,4.25
2022-09-23T21:19:07.896Z,3.88
2022-09-23T21:22:50.937Z,4.00
2022-09-23T21:26:35.722Z,4.30
2022-09-23T21:30:18.826Z,3.92
2022-09-23T21:34:03.155Z,4.13
2022-09-23T21:37:46.116Z,3.28
2022-09-23T21:41:29.262Z,4.00
2022-09-23T21:45:14.053Z,3.60
2022-09-23T21:48:57.612Z,3.30
2022-09-23T21:52:42.667Z,3.35
2022-09-23T21:56:29.516Z,3.45
2022-09-23T22:00:14.645Z,3.67
2022-09-23T22:03:58.598Z,3.15
2022-09-23T22:07:41.433Z,3.40
2022-09-23T22:11:42.471Z,3.58
2022-09-23T22:15:26.437Z,3.25
2022-09-23T22:19:09.723Z,3.38
2022-09-23T22:22:53.085Z,3.75
2022-09-23T22:30:36.960Z,3.22
2022-09-23T22:34:47.861Z,3.70
2022-09-23T22:52:53.423Z,3.63
2022-09-23T22:56:36.466Z,3.97
2022-09-23T23:00:20.410Z,3.78
2022-09-23T23:04:03.509Z,3.75
2022-09-23T23:07:46.038Z,3.50
2022-09-23T23:11:30.163Z,3.33
2022-09-23T23:15:12.995Z,3.70
2022-09-23T23:18:56.023Z,4.90
2022-09-23T23:22:38.324Z,3.47
2022-09-23T23:26:22.812Z,4.10
2022-09-23T23:30:08.230Z,3.60
2022-09-23T23:33:51.443Z,3.67
2022-09-23T23:37:33.889Z,3.88
2022-09-23T23:41:18.677Z,4.27
2022-09-23T23:45:01.300Z,3.65
2022-09-23T23:48:48.176Z,3.50
2022-09-23T23:52:30.653Z,3.50
2022-09-23T23:56:15.994Z,3.60
2022-09-23T23:59:58.710Z,3.47
